Paron, Arkansas
Current Conditions -  °F | °C
As of 3:53 PM on Friday 28 Nov 2014 (Local Time) from KHOT Reporting Station
Clear Clear  
Wind Chill: 59°   Ceiling: Unl
Heat Index: 59°   Visibility: 10mi
Dew Point: 37°   Wind: 14mph
Humidity: 44%   Direction: 200°SSW
Pressure: 30.1"   Gusts: 18mph
Location:  34.77°N, 92.76°W
Report Text: KHOT 282153Z AUTO 20012G16KT 10SM CLR 15/03 A3010 RMK AO2 SLP193 T01500028
Loading
Personal Weather Stations






























Interactive Weather Map New forecast layout! Learn more

10-Day Weather Forecast

Advertisements
Track Severe Weather on mobile